sensor_id;sensor_type;location;lat;lon;timestamp;P1;durP1;ratioP1;P2;durP2;ratioP2
63438;SDS011;49567;48.958;8.294;2023-04-03T12:27:23;1.67;;;1.17;;
63438;SDS011;49567;48.958;8.294;2023-04-03T12:29:56;2.95;;;1.08;;
63438;SDS011;49567;48.958;8.294;2023-04-03T12:35:21;1999.90;;;999.90;;
63438;SDS011;49567;48.958;8.294;2023-04-03T12:40:59;1999.90;;;999.90;;
63438;SDS011;49567;48.958;8.294;2023-04-03T12:43:43;1999.90;;;999.90;;
63438;SDS011;49567;48.958;8.294;2023-04-03T12:46:19;1999.90;;;999.90;;
63438;SDS011;49567;48.958;8.294;2023-04-03T12:48:50;1955.85;;;999.90;;
63438;SDS011;49567;48.958;8.294;2023-04-03T12:51:37;1779.43;;;999.90;;
63438;SDS011;49567;48.958;8.294;2023-04-03T12:57:08;90.43;;;85.80;;
63438;SDS011;49567;48.958;8.294;2023-04-03T12:59:41;599.10;;;546.75;;
63438;SDS011;49567;48.958;8.294;2023-04-03T13:02:19;277.65;;;255.88;;
63438;SDS011;49567;48.958;8.294;2023-04-03T13:04:48;991.73;;;822.47;;
63438;SDS011;49567;48.958;8.294;2023-04-03T13:07:24;1103.13;;;857.23;;
63438;SDS011;49567;48.958;8.294;2023-04-03T13:09:57;840.58;;;702.42;;
63438;SDS011;49567;48.958;8.294;2023-04-03T13:12:51;897.78;;;767.65;;
63438;SDS011;49567;48.958;8.294;2023-04-03T13:15:23;865.17;;;678.15;;
63438;SDS011;49567;48.958;8.294;2023-04-03T13:17:51;80.90;;;75.28;;
63438;SDS011;49567;48.958;8.294;2023-04-03T13:20:20;4.25;;;3.78;;
63438;SDS011;49567;48.958;8.294;2023-04-03T13:23:07;2.47;;;0.98;;
63438;SDS011;49567;48.958;8.294;2023-04-03T13:25:35;11.30;;;10.48;;
63438;SDS011;49567;48.958;8.294;2023-04-03T13:28:03;29.10;;;27.50;;
63438;SDS011;49567;48.958;8.294;2023-04-03T13:30:32;70.10;;;66.22;;
63438;SDS011;49567;48.958;8.294;2023-04-03T13:33:02;82.32;;;76.75;;
63438;SDS011;49567;48.958;8.294;2023-04-03T13:35:40;13.93;;;13.10;;
63438;SDS011;49567;48.958;8.294;2023-04-03T13:38:22;198.63;;;181.43;;
63438;SDS011;49567;48.958;8.294;2023-04-03T13:40:51;351.85;;;318.90;;
63438;SDS011;49567;48.958;8.294;2023-04-03T13:43:28;5.07;;;4.35;;
63438;SDS011;49567;48.958;8.294;2023-04-03T13:46:04;1.30;;;1.05;;
63438;SDS011;49567;48.958;8.294;2023-04-03T13:48:56;2.05;;;0.95;;
63438;SDS011;49567;48.958;8.294;2023-04-03T13:51:25;4.65;;;2.08;;
63438;SDS011;49567;48.958;8.294;2023-04-03T13:53:54;3.42;;;1.60;;
63438;SDS011;49567;48.958;8.294;2023-04-03T13:56:31;3.20;;;1.40;;
63438;SDS011;49567;48.958;8.294;2023-04-03T13:59:21;0.90;;;0.80;;
63438;SDS011;49567;48.958;8.294;2023-04-03T14:07:50;2.60;;;1.40;;
63438;SDS011;49567;48.958;8.294;2023-04-03T14:10:16;6.47;;;1.30;;
63438;SDS011;49567;48.958;8.294;2023-04-03T14:12:41;3.93;;;1.30;;
63438;SDS011;49567;48.958;8.294;2023-04-03T14:15:28;1.53;;;0.80;;
63438;SDS011;49567;48.958;8.294;2023-04-03T14:17:55;1.58;;;0.98;;
63438;SDS011;49567;48.958;8.294;2023-04-03T14:20:21;2.60;;;1.63;;
63438;SDS011;49567;48.958;8.294;2023-04-03T14:22:49;3.85;;;1.75;;
63438;SDS011;49567;48.958;8.294;2023-04-03T14:25:16;1.70;;;1.00;;
63438;SDS011;49567;48.958;8.294;2023-04-03T14:27:43;2.20;;;1.90;;
63438;SDS011;49567;48.958;8.294;2023-04-03T14:30:22;6.65;;;2.60;;
63438;SDS011;49567;48.958;8.294;2023-04-03T14:32:50;6.88;;;1.38;;
63438;SDS011;49567;48.958;8.294;2023-04-03T14:35:16;3.90;;;0.95;;
63438;SDS011;49567;48.958;8.294;2023-04-03T14:37:43;2.75;;;1.10;;
63438;SDS011;49567;48.958;8.294;2023-04-03T14:40:14;5.93;;;1.20;;
63438;SDS011;49567;48.958;8.294;2023-04-03T14:42:45;6.78;;;1.15;;
63438;SDS011;49567;48.958;8.294;2023-04-03T14:45:12;1.50;;;1.40;;
63438;SDS011;49567;48.958;8.294;2023-04-03T14:47:45;3.17;;;1.23;;
63438;SDS011;49567;48.958;8.294;2023-04-03T14:50:18;3.13;;;2.17;;
63438;SDS011;49567;48.958;8.294;2023-04-03T14:52:46;2.55;;;1.30;;
63438;SDS011;49567;48.958;8.294;2023-04-03T14:58:34;5.90;;;1.38;;
63438;SDS011;49567;48.958;8.294;2023-04-03T15:07:10;1.42;;;1.20;;
63438;SDS011;49567;48.958;8.294;2023-04-03T15:09:35;1.60;;;1.30;;
63438;SDS011;49567;48.958;8.294;2023-04-03T15:12:00;2.87;;;1.33;;
63438;SDS011;49567;48.958;8.294;2023-04-03T15:14:26;2.73;;;1.77;;
63438;SDS011;49567;48.958;8.294;2023-04-03T15:16:51;2.10;;;1.50;;
63438;SDS011;49567;48.958;8.294;2023-04-03T15:19:16;8.43;;;1.60;;
63438;SDS011;49567;48.958;8.294;2023-04-03T15:21:41;2.80;;;1.33;;
63438;SDS011;49567;48.958;8.294;2023-04-03T15:24:08;4.50;;;1.20;;
63438;SDS011;49567;48.958;8.294;2023-04-03T15:26:34;1.35;;;1.15;;
63438;SDS011;49567;48.958;8.294;2023-04-03T15:28:59;2.00;;;1.10;;
63438;SDS011;49567;48.958;8.294;2023-04-03T15:31:24;2.80;;;1.60;;
63438;SDS011;49567;48.958;8.294;2023-04-03T15:33:50;1.90;;;1.00;;
63438;SDS011;49567;48.958;8.294;2023-04-03T15:36:15;2.97;;;0.80;;
63438;SDS011;49567;48.958;8.294;2023-04-03T15:38:40;2.33;;;1.80;;
63438;SDS011;49567;48.958;8.294;2023-04-03T15:41:06;3.83;;;1.87;;
63438;SDS011;49567;48.958;8.294;2023-04-03T15:43:31;1.90;;;1.10;;
63438;SDS011;49567;48.958;8.294;2023-04-03T15:45:59;4.60;;;1.40;;
63438;SDS011;49567;48.958;8.294;2023-04-03T15:48:25;2.67;;;1.80;;
63438;SDS011;49567;48.958;8.294;2023-04-03T15:50:51;2.88;;;1.17;;
63438;SDS011;49567;48.958;8.294;2023-04-03T15:53:17;1.77;;;1.10;;
63438;SDS011;49567;48.958;8.294;2023-04-03T15:55:42;2.67;;;1.50;;
63438;SDS011;49567;48.958;8.294;2023-04-03T15:58:07;2.27;;;1.03;;
63438;SDS011;49567;48.958;8.294;2023-04-03T16:00:33;2.63;;;1.53;;
63438;SDS011;49567;48.958;8.294;2023-04-03T16:03:01;3.10;;;1.20;;
63438;SDS011;49567;48.958;8.294;2023-04-03T16:05:30;5.50;;;1.27;;
63438;SDS011;49567;48.958;8.294;2023-04-03T16:07:56;3.67;;;1.30;;
63438;SDS011;49567;48.958;8.294;2023-04-03T16:10:23;2.55;;;1.10;;
63438;SDS011;49567;48.958;8.294;2023-04-03T16:12:49;2.75;;;0.90;;
63438;SDS011;49567;48.958;8.294;2023-04-03T16:15:15;4.23;;;1.67;;
63438;SDS011;49567;48.958;8.294;2023-04-03T16:17:40;6.10;;;2.80;;
63438;SDS011;49567;48.958;8.294;2023-04-03T16:20:06;4.25;;;2.13;;
63438;SDS011;49567;48.958;8.294;2023-04-03T16:22:33;5.18;;;2.85;;
63438;SDS011;49567;48.958;8.294;2023-04-03T16:24:59;7.73;;;4.53;;
63438;SDS011;49567;48.958;8.294;2023-04-03T16:27:24;2.15;;;1.58;;
63438;SDS011;49567;48.958;8.294;2023-04-03T16:29:53;1.45;;;1.15;;
63438;SDS011;49567;48.958;8.294;2023-04-03T16:32:21;2.95;;;1.30;;
63438;SDS011;49567;48.958;8.294;2023-04-03T16:34:48;2.83;;;1.70;;
63438;SDS011;49567;48.958;8.294;2023-04-03T16:37:13;2.60;;;1.00;;
63438;SDS011;49567;48.958;8.294;2023-04-03T16:39:39;1.65;;;0.98;;
63438;SDS011;49567;48.958;8.294;2023-04-03T16:42:04;3.50;;;1.30;;
63438;SDS011;49567;48.958;8.294;2023-04-03T16:44:30;3.67;;;1.83;;
63438;SDS011;49567;48.958;8.294;2023-04-03T16:46:55;4.47;;;1.40;;
63438;SDS011;49567;48.958;8.294;2023-04-03T16:49:20;6.80;;;1.80;;
63438;SDS011;49567;48.958;8.294;2023-04-03T16:51:47;5.40;;;1.70;;
63438;SDS011;49567;48.958;8.294;2023-04-03T16:54:13;1.60;;;1.10;;
63438;SDS011;49567;48.958;8.294;2023-04-03T16:56:38;6.57;;;1.30;;
63438;SDS011;49567;48.958;8.294;2023-04-03T16:59:04;3.37;;;1.60;;
63438;SDS011;49567;48.958;8.294;2023-04-03T17:01:30;3.77;;;1.90;;
63438;SDS011;49567;48.958;8.294;2023-04-03T17:03:55;2.88;;;1.30;;
63438;SDS011;49567;48.958;8.294;2023-04-03T17:06:21;1.50;;;1.13;;
63438;SDS011;49567;48.958;8.294;2023-04-03T17:08:48;3.08;;;1.40;;
63438;SDS011;49567;48.958;8.294;2023-04-03T17:11:15;2.78;;;1.52;;
63438;SDS011;49567;48.958;8.294;2023-04-03T17:13:41;3.33;;;1.50;;
63438;SDS011;49567;48.958;8.294;2023-04-03T17:16:07;2.10;;;1.47;;
63438;SDS011;49567;48.958;8.294;2023-04-03T17:18:35;8.77;;;4.05;;
63438;SDS011;49567;48.958;8.294;2023-04-03T17:21:01;6.03;;;2.13;;
63438;SDS011;49567;48.958;8.294;2023-04-03T17:23:28;4.55;;;1.88;;
63438;SDS011;49567;48.958;8.294;2023-04-03T17:25:54;1.30;;;1.20;;
63438;SDS011;49567;48.958;8.294;2023-04-03T17:28:20;3.03;;;1.53;;
63438;SDS011;49567;48.958;8.294;2023-04-03T17:30:49;2.40;;;1.02;;
63438;SDS011;49567;48.958;8.294;2023-04-03T17:33:15;2.25;;;1.48;;
63438;SDS011;49567;48.958;8.294;2023-04-03T17:35:40;2.10;;;1.67;;
63438;SDS011;49567;48.958;8.294;2023-04-03T17:38:05;1.80;;;1.37;;
63438;SDS011;49567;48.958;8.294;2023-04-03T17:40:31;2.83;;;1.50;;
63438;SDS011;49567;48.958;8.294;2023-04-03T17:42:56;1.30;;;1.20;;
63438;SDS011;49567;48.958;8.294;2023-04-03T17:45:21;2.73;;;1.40;;
63438;SDS011;49567;48.958;8.294;2023-04-03T17:47:48;5.18;;;1.80;;
63438;SDS011;49567;48.958;8.294;2023-04-03T17:50:15;2.45;;;1.35;;
63438;SDS011;49567;48.958;8.294;2023-04-03T17:52:41;3.87;;;1.70;;
63438;SDS011;49567;48.958;8.294;2023-04-03T17:55:06;1.63;;;1.47;;
63438;SDS011;49567;48.958;8.294;2023-04-03T17:57:31;1.85;;;1.48;;
63438;SDS011;49567;48.958;8.294;2023-04-03T17:59:57;3.37;;;1.20;;
63438;SDS011;49567;48.958;8.294;2023-04-03T18:02:22;2.03;;;1.20;;
63438;SDS011;49567;48.958;8.294;2023-04-03T18:04:50;2.77;;;1.53;;
63438;SDS011;49567;48.958;8.294;2023-04-03T18:07:16;2.78;;;1.48;;
63438;SDS011;49567;48.958;8.294;2023-04-03T18:09:42;4.80;;;1.57;;
63438;SDS011;49567;48.958;8.294;2023-04-03T18:12:10;2.80;;;1.50;;
63438;SDS011;49567;48.958;8.294;2023-04-03T18:14:36;2.90;;;1.30;;
63438;SDS011;49567;48.958;8.294;2023-04-03T18:17:03;1.10;;;1.00;;
63438;SDS011;49567;48.958;8.294;2023-04-03T18:19:28;3.53;;;1.63;;
63438;SDS011;49567;48.958;8.294;2023-04-03T18:21:55;3.53;;;1.70;;
63438;SDS011;49567;48.958;8.294;2023-04-03T18:24:22;2.08;;;1.88;;
63438;SDS011;49567;48.958;8.294;2023-04-03T18:26:50;3.20;;;2.22;;
63438;SDS011;49567;48.958;8.294;2023-04-03T18:29:19;3.83;;;1.52;;
63438;SDS011;49567;48.958;8.294;2023-04-03T18:31:46;2.47;;;1.88;;
63438;SDS011;49567;48.958;8.294;2023-04-03T18:34:15;2.17;;;1.67;;
63438;SDS011;49567;48.958;8.294;2023-04-03T18:36:41;3.20;;;1.40;;
63438;SDS011;49567;48.958;8.294;2023-04-03T18:39:06;1.77;;;1.60;;
63438;SDS011;49567;48.958;8.294;2023-04-03T18:41:32;2.17;;;1.50;;
63438;SDS011;49567;48.958;8.294;2023-04-03T18:43:59;2.53;;;2.03;;
63438;SDS011;49567;48.958;8.294;2023-04-03T18:46:27;3.60;;;2.17;;
63438;SDS011;49567;48.958;8.294;2023-04-03T18:48:53;3.00;;;1.60;;
63438;SDS011;49567;48.958;8.294;2023-04-03T18:51:19;3.05;;;1.77;;
63438;SDS011;49567;48.958;8.294;2023-04-03T18:53:45;3.47;;;2.10;;
63438;SDS011;49567;48.958;8.294;2023-04-03T18:56:11;3.50;;;2.17;;
63438;SDS011;49567;48.958;8.294;2023-04-03T18:58:36;4.25;;;2.90;;
63438;SDS011;49567;48.958;8.294;2023-04-03T19:01:02;7.07;;;3.00;;
63438;SDS011;49567;48.958;8.294;2023-04-03T19:03:28;5.43;;;2.13;;
63438;SDS011;49567;48.958;8.294;2023-04-03T19:05:55;3.17;;;2.35;;
63438;SDS011;49567;48.958;8.294;2023-04-03T19:08:21;3.55;;;2.50;;
63438;SDS011;49567;48.958;8.294;2023-04-03T19:10:47;1.80;;;1.70;;
63438;SDS011;49567;48.958;8.294;2023-04-03T19:13:12;4.67;;;2.20;;
63438;SDS011;49567;48.958;8.294;2023-04-03T19:15:37;2.40;;;1.60;;
63438;SDS011;49567;48.958;8.294;2023-04-03T19:18:03;3.20;;;2.23;;
63438;SDS011;49567;48.958;8.294;2023-04-03T19:20:28;4.05;;;1.77;;
63438;SDS011;49567;48.958;8.294;2023-04-03T19:22:54;2.10;;;1.73;;
63438;SDS011;49567;48.958;8.294;2023-04-03T19:25:19;1.83;;;1.27;;
63438;SDS011;49567;48.958;8.294;2023-04-03T19:27:45;2.67;;;1.85;;
63438;SDS011;49567;48.958;8.294;2023-04-03T19:30:11;3.28;;;1.50;;
63438;SDS011;49567;48.958;8.294;2023-04-03T19:32:37;5.25;;;2.15;;
63438;SDS011;49567;48.958;8.294;2023-04-03T19:35:02;2.80;;;1.80;;
63438;SDS011;49567;48.958;8.294;2023-04-03T19:37:29;4.22;;;1.92;;
63438;SDS011;49567;48.958;8.294;2023-04-03T19:39:54;3.03;;;1.80;;
63438;SDS011;49567;48.958;8.294;2023-04-03T19:42:20;3.47;;;1.70;;
63438;SDS011;49567;48.958;8.294;2023-04-03T19:44:46;4.75;;;1.98;;
63438;SDS011;49567;48.958;8.294;2023-04-03T19:47:12;2.28;;;2.00;;
63438;SDS011;49567;48.958;8.294;2023-04-03T19:49:41;2.90;;;1.48;;
63438;SDS011;49567;48.958;8.294;2023-04-03T19:52:07;2.60;;;1.40;;
63438;SDS011;49567;48.958;8.294;2023-04-03T19:54:32;1.42;;;1.10;;
63438;SDS011;49567;48.958;8.294;2023-04-03T19:56:58;1.60;;;1.20;;
63438;SDS011;49567;48.958;8.294;2023-04-03T19:59:23;2.20;;;1.13;;
63438;SDS011;49567;48.958;8.294;2023-04-03T20:01:49;1.50;;;1.07;;
63438;SDS011;49567;48.958;8.294;2023-04-03T20:04:14;1.77;;;1.20;;
63438;SDS011;49567;48.958;8.294;2023-04-03T20:06:40;3.97;;;1.27;;
63438;SDS011;49567;48.958;8.294;2023-04-03T20:09:05;2.77;;;0.90;;
63438;SDS011;49567;48.958;8.294;2023-04-03T20:11:32;2.47;;;1.00;;
63438;SDS011;49567;48.958;8.294;2023-04-03T20:13:59;1.53;;;1.27;;
63438;SDS011;49567;48.958;8.294;2023-04-03T20:16:25;2.77;;;1.20;;
63438;SDS011;49567;48.958;8.294;2023-04-03T20:18:50;3.87;;;1.10;;
63438;SDS011;49567;48.958;8.294;2023-04-03T20:21:19;1.20;;;0.97;;
63438;SDS011;49567;48.958;8.294;2023-04-03T20:23:45;1.48;;;1.10;;
63438;SDS011;49567;48.958;8.294;2023-04-03T20:26:15;1.50;;;1.40;;
63438;SDS011;49567;48.958;8.294;2023-04-03T20:28:47;1.93;;;1.53;;
63438;SDS011;49567;48.958;8.294;2023-04-03T20:31:17;2.13;;;1.92;;
63438;SDS011;49567;48.958;8.294;2023-04-03T20:33:43;2.40;;;1.20;;
63438;SDS011;49567;48.958;8.294;2023-04-03T20:36:08;3.10;;;1.40;;
63438;SDS011;49567;48.958;8.294;2023-04-03T20:38:34;3.63;;;1.35;;
63438;SDS011;49567;48.958;8.294;2023-04-03T20:40:59;4.23;;;1.33;;
63438;SDS011;49567;48.958;8.294;2023-04-03T20:43:25;3.67;;;1.17;;
63438;SDS011;49567;48.958;8.294;2023-04-03T20:45:50;3.83;;;1.40;;
63438;SDS011;49567;48.958;8.294;2023-04-03T20:48:16;2.17;;;1.25;;
63438;SDS011;49567;48.958;8.294;2023-04-03T20:50:42;1.43;;;1.20;;
63438;SDS011;49567;48.958;8.294;2023-04-03T20:53:09;3.63;;;1.60;;
63438;SDS011;49567;48.958;8.294;2023-04-03T20:55:35;2.53;;;1.50;;
63438;SDS011;49567;48.958;8.294;2023-04-03T20:58:01;2.90;;;1.50;;
63438;SDS011;49567;48.958;8.294;2023-04-03T21:00:27;1.75;;;1.27;;
63438;SDS011;49567;48.958;8.294;2023-04-03T21:02:55;2.72;;;1.40;;
63438;SDS011;49567;48.958;8.294;2023-04-03T21:05:21;3.25;;;1.70;;
63438;SDS011;49567;48.958;8.294;2023-04-03T21:19:25;2.25;;;1.50;;
63438;SDS011;49567;48.958;8.294;2023-04-03T21:21:51;3.50;;;1.50;;
63438;SDS011;49567;48.958;8.294;2023-04-03T21:24:16;4.77;;;1.97;;
63438;SDS011;49567;48.958;8.294;2023-04-03T21:26:43;6.22;;;1.70;;
63438;SDS011;49567;48.958;8.294;2023-04-03T21:29:09;4.43;;;2.40;;
63438;SDS011;49567;48.958;8.294;2023-04-03T21:34:17;1.90;;;1.65;;
63438;SDS011;49567;48.958;8.294;2023-04-03T21:36:43;2.55;;;1.15;;
63438;SDS011;49567;48.958;8.294;2023-04-03T21:39:09;1.90;;;1.20;;
63438;SDS011;49567;48.958;8.294;2023-04-03T21:41:35;1.85;;;1.42;;
63438;SDS011;49567;48.958;8.294;2023-04-03T21:44:01;2.33;;;1.10;;
63438;SDS011;49567;48.958;8.294;2023-04-03T21:46:27;1567.10;;;708.60;;
63438;SDS011;49567;48.958;8.294;2023-04-03T21:48:52;1449.67;;;680.97;;
63438;SDS011;49567;48.958;8.294;2023-04-03T21:51:19;1992.57;;;909.40;;
63438;SDS011;49567;48.958;8.294;2023-04-03T21:53:45;1999.90;;;902.67;;
63438;SDS011;49567;48.958;8.294;2023-04-03T21:56:11;1841.53;;;825.87;;
63438;SDS011;49567;48.958;8.294;2023-04-03T21:58:36;1999.90;;;946.30;;
63438;SDS011;49567;48.958;8.294;2023-04-03T22:01:10;1999.90;;;952.83;;
63438;SDS011;49567;48.958;8.294;2023-04-03T22:03:40;1947.85;;;906.22;;
63438;SDS011;49567;48.958;8.294;2023-04-03T22:06:07;1999.90;;;934.92;;
63438;SDS011;49567;48.958;8.294;2023-04-03T22:08:34;1930.80;;;910.28;;
63438;SDS011;49567;48.958;8.294;2023-04-03T22:11:00;1999.90;;;999.90;;
63438;SDS011;49567;48.958;8.294;2023-04-03T22:13:33;1981.18;;;999.90;;
63438;SDS011;49567;48.958;8.294;2023-04-03T22:16:01;1999.90;;;961.00;;
63438;SDS011;49567;48.958;8.294;2023-04-03T22:18:27;1999.90;;;999.90;;
63438;SDS011;49567;48.958;8.294;2023-04-03T22:20:53;1999.90;;;999.90;;
63438;SDS011;49567;48.958;8.294;2023-04-03T22:23:19;908.95;;;781.25;;
63438;SDS011;49567;48.958;8.294;2023-04-03T22:28:31;1999.90;;;999.90;;
63438;SDS011;49567;48.958;8.294;2023-04-03T22:31:04;703.55;;;569.95;;
63438;SDS011;49567;48.958;8.294;2023-04-03T22:33:31;1284.53;;;906.43;;
63438;SDS011;49567;48.958;8.294;2023-04-03T22:35:57;1299.88;;;896.28;;
63438;SDS011;49567;48.958;8.294;2023-04-03T22:38:23;1283.00;;;857.00;;
63438;SDS011;49567;48.958;8.294;2023-04-03T22:40:55;1569.75;;;955.58;;
63438;SDS011;49567;48.958;8.294;2023-04-03T22:43:22;1200.88;;;784.72;;
63438;SDS011;49567;48.958;8.294;2023-04-03T22:45:49;1797.88;;;930.22;;
63438;SDS011;49567;48.958;8.294;2023-04-03T22:48:14;1452.17;;;798.50;;
63438;SDS011;49567;48.958;8.294;2023-04-03T22:50:40;826.23;;;428.00;;
63438;SDS011;49567;48.958;8.294;2023-04-03T22:53:06;1309.53;;;645.35;;
63438;SDS011;49567;48.958;8.294;2023-04-03T22:55:32;1529.23;;;763.93;;
63438;SDS011;49567;48.958;8.294;2023-04-03T22:57:57;1999.90;;;999.90;;
63438;SDS011;49567;48.958;8.294;2023-04-03T23:00:22;1999.90;;;999.90;;
63438;SDS011;49567;48.958;8.294;2023-04-03T23:02:48;1999.90;;;999.90;;
63438;SDS011;49567;48.958;8.294;2023-04-03T23:05:13;1999.90;;;999.90;;
63438;SDS011;49567;48.958;8.294;2023-04-03T23:07:39;1999.90;;;999.90;;
63438;SDS011;49567;48.958;8.294;2023-04-03T23:10:04;1999.90;;;999.90;;
63438;SDS011;49567;48.958;8.294;2023-04-03T23:12:35;1999.90;;;999.90;;
63438;SDS011;49567;48.958;8.294;2023-04-03T23:15:01;1999.90;;;999.90;;
63438;SDS011;49567;48.958;8.294;2023-04-03T23:17:27;1999.90;;;999.90;;
63438;SDS011;49567;48.958;8.294;2023-04-03T23:19:52;1999.90;;;999.90;;
63438;SDS011;49567;48.958;8.294;2023-04-03T23:22:17;1999.90;;;999.90;;
63438;SDS011;49567;48.958;8.294;2023-04-03T23:24:43;1999.90;;;999.90;;
63438;SDS011;49567;48.958;8.294;2023-04-03T23:27:08;1999.90;;;999.90;;
63438;SDS011;49567;48.958;8.294;2023-04-03T23:29:33;1999.90;;;999.90;;
63438;SDS011;49567;48.958;8.294;2023-04-03T23:31:59;1999.90;;;999.90;;
63438;SDS011;49567;48.958;8.294;2023-04-03T23:34:24;1999.90;;;999.90;;
63438;SDS011;49567;48.958;8.294;2023-04-03T23:36:49;1999.90;;;999.90;;
63438;SDS011;49567;48.958;8.294;2023-04-03T23:39:15;1999.90;;;999.90;;
63438;SDS011;49567;48.958;8.294;2023-04-03T23:41:43;1999.90;;;999.90;;
63438;SDS011;49567;48.958;8.294;2023-04-03T23:44:09;1999.90;;;999.90;;
63438;SDS011;49567;48.958;8.294;2023-04-03T23:46:34;1999.90;;;999.90;;
63438;SDS011;49567;48.958;8.294;2023-04-03T23:48:59;1999.90;;;999.90;;
63438;SDS011;49567;48.958;8.294;2023-04-03T23:51:27;1999.90;;;999.90;;
63438;SDS011;49567;48.958;8.294;2023-04-03T23:53:52;1999.90;;;999.90;;
63438;SDS011;49567;48.958;8.294;2023-04-03T23:56:18;1999.90;;;999.90;;
63438;SDS011;49567;48.958;8.294;2023-04-03T23:58:43;1999.90;;;999.90;;
